createdAt,value
2017-07-05T00:00:54.132Z,4.90
2017-07-05T00:03:22.047Z,4.63
2017-07-05T00:05:50.493Z,5.03
2017-07-05T00:08:18.450Z,3.90
2017-07-05T00:10:46.314Z,4.27
2017-07-05T00:13:14.199Z,3.97
2017-07-05T00:15:41.742Z,4.50
2017-07-05T00:18:09.630Z,4.47
2017-07-05T00:20:37.094Z,4.73
2017-07-05T00:23:04.617Z,4.20
2017-07-05T00:25:32.590Z,3.73
2017-07-05T00:28:00.477Z,3.73
2017-07-05T00:30:28.010Z,4.23
2017-07-05T00:32:55.990Z,3.83
2017-07-05T00:35:23.542Z,4.33
2017-07-05T00:37:53.358Z,4.10
2017-07-05T00:40:21.321Z,3.83
2017-07-05T00:42:49.291Z,4.00
2017-07-05T00:45:17.158Z,4.37
2017-07-05T00:47:44.714Z,4.60
2017-07-05T00:50:12.682Z,4.40
2017-07-05T00:52:40.651Z,4.10
2017-07-05T00:55:08.521Z,4.40
2017-07-05T00:57:36.410Z,4.70
2017-07-05T01:00:03.903Z,4.43
2017-07-05T01:02:31.402Z,4.47
2017-07-05T01:04:59.364Z,4.37
2017-07-05T01:07:27.229Z,4.83
2017-07-05T01:09:55.194Z,4.60
2017-07-05T01:12:23.069Z,4.30
2017-07-05T01:14:50.950Z,5.87
2017-07-05T01:17:18.486Z,4.87
2017-07-05T01:19:46.469Z,5.13
2017-07-05T01:22:14.426Z,4.90
2017-07-05T01:24:42.390Z,4.93
2017-07-05T01:27:10.266Z,5.20
2017-07-05T01:29:39.050Z,5.30
2017-07-05T01:32:07.851Z,5.03
2017-07-05T01:34:35.343Z,4.83
2017-07-05T01:37:02.826Z,5.37
2017-07-05T01:39:30.410Z,5.60
2017-07-05T01:41:58.270Z,5.53
2017-07-05T01:44:26.241Z,5.80
2017-07-05T01:46:54.110Z,6.13
2017-07-05T01:49:22.079Z,5.57
2017-07-05T01:51:50.041Z,6.43
2017-07-05T01:54:19.865Z,6.27
2017-07-05T01:56:47.739Z,6.10
2017-07-05T01:59:16.202Z,6.03
2017-07-05T02:01:44.070Z,6.37
2017-07-05T02:04:12.038Z,6.53
2017-07-05T02:06:39.907Z,6.57
2017-07-05T02:09:07.774Z,6.70
2017-07-05T02:11:35.666Z,6.83
2017-07-05T02:14:03.137Z,7.00
2017-07-05T02:16:30.630Z,6.87
2017-07-05T02:18:58.214Z,7.00
2017-07-05T02:21:28.062Z,7.77
2017-07-05T02:23:55.573Z,7.57
2017-07-05T02:26:23.445Z,7.17
2017-07-05T02:28:51.352Z,6.63
2017-07-05T02:31:18.866Z,7.20
2017-07-05T02:33:46.837Z,7.50
2017-07-05T02:36:14.801Z,7.00
2017-07-05T02:38:42.770Z,6.30
2017-07-05T02:41:11.577Z,7.30
2017-07-05T02:43:39.163Z,7.50
2017-07-05T02:46:06.654Z,7.77
2017-07-05T02:48:34.147Z,7.27
2017-07-05T02:51:02.028Z,6.90
2017-07-05T02:53:29.562Z,8.57
2017-07-05T02:55:57.442Z,6.77
2017-07-05T02:58:24.978Z,6.57
2017-07-05T03:00:52.545Z,6.10
2017-07-05T03:03:20.427Z,5.80
2017-07-05T03:05:47.982Z,6.47
2017-07-05T03:08:15.531Z,5.60
2017-07-05T03:10:43.399Z,5.53
2017-07-05T03:13:12.278Z,4.67
2017-07-05T03:15:40.146Z,5.97
2017-07-05T03:18:09.953Z,5.37
2017-07-05T03:20:37.851Z,5.97
2017-07-05T03:23:05.378Z,5.33
2017-07-05T03:25:33.350Z,6.90
2017-07-05T03:28:01.213Z,6.20
2017-07-05T03:30:29.098Z,6.70
2017-07-05T03:32:56.566Z,6.37
2017-07-05T03:35:24.093Z,6.80
2017-07-05T03:37:52.062Z,5.80
2017-07-05T03:40:19.930Z,5.60
2017-07-05T03:42:47.903Z,5.67
2017-07-05T03:45:16.706Z,5.97
2017-07-05T03:47:44.252Z,5.90
2017-07-05T03:50:12.118Z,6.60
2017-07-05T03:52:40.005Z,6.20
2017-07-05T03:55:07.630Z,7.07
2017-07-05T03:57:35.194Z,7.30
2017-07-05T04:00:03.077Z,6.60
2017-07-05T04:02:30.625Z,7.40
2017-07-05T04:04:58.614Z,8.00
2017-07-05T04:07:26.079Z,8.50
2017-07-05T04:09:53.606Z,7.20
2017-07-05T04:12:21.469Z,7.43
2017-07-05T04:14:49.378Z,6.80
2017-07-05T04:17:16.894Z,8.67
2017-07-05T04:19:44.762Z,8.17
2017-07-05T04:22:12.725Z,7.80
2017-07-05T04:24:40.699Z,7.37
2017-07-05T04:27:08.667Z,8.37
2017-07-05T04:29:36.633Z,8.53
2017-07-05T04:32:04.545Z,7.77
2017-07-05T04:34:32.062Z,7.70
2017-07-05T04:37:00.879Z,8.20
2017-07-05T04:39:30.375Z,9.10
2017-07-05T04:41:58.220Z,8.00
2017-07-05T04:44:26.110Z,9.07
2017-07-05T04:46:53.642Z,9.77
2017-07-05T04:49:21.515Z,8.37
2017-07-05T04:51:49.405Z,9.30
2017-07-05T04:54:16.877Z,9.37
2017-07-05T04:56:44.387Z,10.73
2017-07-05T04:59:12.353Z,9.80
2017-07-05T05:01:40.243Z,9.20
2017-07-05T05:04:07.779Z,9.03
2017-07-05T05:06:35.689Z,9.40
2017-07-05T05:09:03.177Z,9.87
2017-07-05T05:11:30.660Z,9.30
2017-07-05T05:13:58.550Z,9.97
2017-07-05T05:16:26.085Z,10.23
2017-07-05T05:18:54.054Z,9.73
2017-07-05T05:21:22.026Z,10.33
2017-07-05T05:23:49.902Z,11.23
2017-07-05T05:26:18.386Z,10.67
2017-07-05T05:28:45.926Z,10.83
2017-07-05T05:31:13.894Z,10.63
2017-07-05T05:33:41.794Z,10.77
2017-07-05T05:36:09.321Z,11.60
2017-07-05T05:38:37.210Z,18.13
2017-07-05T05:41:05.637Z,20.90
2017-07-05T05:43:33.226Z,21.40
2017-07-05T05:46:02.034Z,20.03
2017-07-05T05:48:29.579Z,22.70
2017-07-05T05:50:57.538Z,17.27
2017-07-05T05:53:25.506Z,15.33
2017-07-05T05:55:53.402Z,14.77
2017-07-05T05:58:20.938Z,17.27
2017-07-05T06:00:48.834Z,18.93
2017-07-05T06:03:16.322Z,23.90
2017-07-05T06:05:43.914Z,23.03
2017-07-05T06:08:11.883Z,27.07
2017-07-05T06:10:39.860Z,25.10
2017-07-05T06:13:07.760Z,29.57
2017-07-05T06:15:35.278Z,24.80
2017-07-05T06:18:04.161Z,32.50
2017-07-05T06:20:32.134Z,28.20
2017-07-05T06:23:00.100Z,29.50
2017-07-05T06:25:27.997Z,35.37
2017-07-05T06:27:55.490Z,30.77
2017-07-05T06:30:22.974Z,28.40
2017-07-05T06:32:50.589Z,40.47
2017-07-05T06:35:18.097Z,29.20
2017-07-05T06:37:45.990Z,33.00
2017-07-05T06:40:13.470Z,26.33
2017-07-05T06:42:40.966Z,32.77
2017-07-05T06:45:08.445Z,34.60
2017-07-05T06:47:36.334Z,31.50
2017-07-05T06:50:03.818Z,29.43
2017-07-05T06:52:31.313Z,27.73
2017-07-05T06:54:59.286Z,27.77
2017-07-05T06:57:27.175Z,23.50
2017-07-05T06:59:54.714Z,23.00
2017-07-05T07:02:22.679Z,24.40
2017-07-05T07:04:50.558Z,24.03
2017-07-05T07:07:18.102Z,25.73
2017-07-05T07:09:46.070Z,25.37
2017-07-05T07:12:14.040Z,24.83
2017-07-05T07:14:42.806Z,26.47
2017-07-05T07:17:10.385Z,27.10
2017-07-05T07:19:38.258Z,26.80
2017-07-05T07:22:06.276Z,26.10
2017-07-05T07:24:34.698Z,27.73
2017-07-05T07:27:02.670Z,27.23
2017-07-05T07:29:30.545Z,27.77
2017-07-05T07:31:58.544Z,27.70
2017-07-05T07:34:26.022Z,27.73
2017-07-05T07:36:53.517Z,28.90
2017-07-05T07:39:21.390Z,29.90
2017-07-05T07:41:50.274Z,28.37
2017-07-05T07:44:18.180Z,28.57
2017-07-05T07:46:45.698Z,29.23
2017-07-05T07:49:13.605Z,26.87
2017-07-05T07:51:41.121Z,28.37
2017-07-05T07:54:09.089Z,27.13
2017-07-05T07:56:37.058Z,28.17
2017-07-05T07:59:05.879Z,27.87
2017-07-05T08:01:33.427Z,27.47
2017-07-05T08:04:00.908Z,27.77
2017-07-05T08:06:28.394Z,26.03
2017-07-05T08:08:55.905Z,27.93
2017-07-05T08:11:23.438Z,26.17
2017-07-05T08:13:51.327Z,28.13
2017-07-05T08:16:18.812Z,27.43
2017-07-05T08:18:46.311Z,27.73
2017-07-05T08:21:14.282Z,27.30
2017-07-05T08:23:42.249Z,27.40
2017-07-05T08:26:10.158Z,25.97
2017-07-05T08:28:37.683Z,25.53
2017-07-05T08:31:05.669Z,24.87
2017-07-05T08:33:35.117Z,27.10
2017-07-05T08:36:02.595Z,24.83
2017-07-05T08:38:31.106Z,25.60
2017-07-05T08:40:58.646Z,25.30
2017-07-05T08:43:26.539Z,26.20
2017-07-05T08:45:54.067Z,25.70
2017-07-05T08:48:22.040Z,25.77
2017-07-05T08:50:50.003Z,25.23
2017-07-05T08:53:17.972Z,26.80
2017-07-05T08:55:45.942Z,25.37
2017-07-05T08:58:15.774Z,24.63
2017-07-05T09:00:44.234Z,26.47
2017-07-05T09:03:12.131Z,24.67
2017-07-05T09:05:39.606Z,24.83
2017-07-05T09:08:07.116Z,23.10
2017-07-05T09:10:34.998Z,25.07
2017-07-05T09:13:02.579Z,25.17
2017-07-05T09:15:30.113Z,24.03
2017-07-05T09:17:57.614Z,23.97
2017-07-05T09:20:25.089Z,23.67
2017-07-05T09:22:52.589Z,23.40
2017-07-05T09:25:20.127Z,22.13
2017-07-05T09:27:48.013Z,23.87
2017-07-05T09:30:15.550Z,21.90
2017-07-05T09:32:43.518Z,22.90
2017-07-05T09:35:11.529Z,22.03
2017-07-05T09:37:39.031Z,21.93
2017-07-05T09:40:06.514Z,21.40
2017-07-05T09:42:34.469Z,22.40
2017-07-05T09:45:02.436Z,20.87
2017-07-05T09:47:30.413Z,21.27
2017-07-05T09:49:59.198Z,22.93
2017-07-05T09:52:27.166Z,20.87
2017-07-05T09:54:55.129Z,21.53
2017-07-05T09:57:23.098Z,21.43
2017-07-05T09:59:50.973Z,20.83
2017-07-05T10:02:18.854Z,21.47
2017-07-05T10:04:46.401Z,20.80
2017-07-05T10:07:13.879Z,19.97
2017-07-05T10:09:41.406Z,21.17
2017-07-05T10:12:09.374Z,20.53
2017-07-05T10:14:37.342Z,20.53
2017-07-05T10:17:04.897Z,20.13
2017-07-05T10:19:34.733Z,20.30
2017-07-05T10:22:02.209Z,20.10
2017-07-05T10:24:29.701Z,20.10
2017-07-05T10:26:57.191Z,20.50
2017-07-05T10:29:25.074Z,19.13
2017-07-05T10:31:52.610Z,19.60
2017-07-05T10:34:20.508Z,20.00
2017-07-05T10:36:47.977Z,20.10
2017-07-05T10:39:15.480Z,18.57
2017-07-05T10:41:43.046Z,20.10
2017-07-05T10:44:11.018Z,18.80
2017-07-05T10:46:38.977Z,18.87
2017-07-05T10:49:06.874Z,18.10
2017-07-05T10:51:34.354Z,18.63
2017-07-05T10:54:02.791Z,18.53
2017-07-05T10:56:30.755Z,18.13
2017-07-05T10:58:58.722Z,18.33
2017-07-05T11:01:27.050Z,17.70
2017-07-05T11:03:54.554Z,17.10
2017-07-05T11:06:22.521Z,16.90
2017-07-05T11:08:50.414Z,17.17
2017-07-05T11:11:17.891Z,17.10
2017-07-05T11:13:45.412Z,17.17
2017-07-05T11:16:13.373Z,17.60
2017-07-05T11:18:43.218Z,15.67
2017-07-05T11:21:10.742Z,16.43
2017-07-05T11:23:38.629Z,16.20
2017-07-05T11:26:07.075Z,16.57
2017-07-05T11:28:35.570Z,15.60
2017-07-05T11:31:04.382Z,16.27
2017-07-05T11:33:32.843Z,16.53
2017-07-05T11:36:01.650Z,15.70
2017-07-05T11:38:29.182Z,17.03
2017-07-05T11:40:57.069Z,16.90
2017-07-05T11:43:24.609Z,14.47
2017-07-05T11:45:52.578Z,15.00
2017-07-05T11:48:20.486Z,16.33
2017-07-05T11:50:47.998Z,15.13
2017-07-05T11:53:15.967Z,14.83
2017-07-05T11:55:43.934Z,15.30
2017-07-05T11:58:11.910Z,15.30
2017-07-05T12:00:39.875Z,14.20
2017-07-05T12:03:07.846Z,14.70
2017-07-05T12:05:35.809Z,14.43
2017-07-05T12:08:03.790Z,14.77
2017-07-05T12:10:31.746Z,14.77
2017-07-05T12:12:59.638Z,13.73
2017-07-05T12:15:27.175Z,15.33
2017-07-05T12:17:54.684Z,14.03
2017-07-05T12:20:22.398Z,13.70
2017-07-05T12:22:50.285Z,13.70
2017-07-05T12:25:17.762Z,15.47
2017-07-05T12:27:45.313Z,14.00
2017-07-05T12:30:12.815Z,14.43
2017-07-05T12:32:40.294Z,13.27
2017-07-05T12:35:08.257Z,13.00
2017-07-05T12:37:36.225Z,12.37
2017-07-05T12:40:04.190Z,12.50
2017-07-05T12:42:32.100Z,12.20
2017-07-05T12:44:59.614Z,12.67
2017-07-05T12:47:27.485Z,12.63
2017-07-05T12:49:55.041Z,11.80
2017-07-05T12:52:22.909Z,12.27
2017-07-05T12:54:50.873Z,12.40
2017-07-05T12:57:18.842Z,11.50
2017-07-05T12:59:46.737Z,12.23
2017-07-05T13:02:14.270Z,11.77
2017-07-05T13:04:42.180Z,12.20
2017-07-05T13:07:09.653Z,11.30
2017-07-05T13:09:37.259Z,12.00
2017-07-05T13:12:05.218Z,11.50
2017-07-05T13:14:33.185Z,11.60
2017-07-05T13:17:01.158Z,11.80
2017-07-05T13:19:29.126Z,11.60
2017-07-05T13:21:57.094Z,12.00
2017-07-05T13:24:25.060Z,11.03
2017-07-05T13:26:53.967Z,10.93
2017-07-05T13:29:21.922Z,11.50
2017-07-05T13:31:49.791Z,11.37
2017-07-05T13:34:17.682Z,10.70
2017-07-05T13:36:45.210Z,11.10
2017-07-05T13:39:12.770Z,10.97
2017-07-05T13:41:40.734Z,11.10
2017-07-05T13:44:08.645Z,10.47
2017-07-05T13:46:36.159Z,11.03
2017-07-05T13:49:04.946Z,11.50
2017-07-05T13:51:32.857Z,11.50
2017-07-05T13:54:00.359Z,11.80
2017-07-05T13:56:27.826Z,11.53
2017-07-05T13:58:55.314Z,11.17
2017-07-05T14:01:22.790Z,11.80
2017-07-05T14:03:51.189Z,11.40
2017-07-05T14:06:18.889Z,11.50
2017-07-05T14:08:46.789Z,11.07
2017-07-05T14:11:14.315Z,10.90
2017-07-05T14:13:42.318Z,11.50
2017-07-05T14:16:09.806Z,11.17
2017-07-05T14:18:37.306Z,10.47
2017-07-05T14:21:04.858Z,11.73
2017-07-05T14:23:32.753Z,10.80
2017-07-05T14:26:00.246Z,10.83
2017-07-05T14:28:27.806Z,10.27
2017-07-05T14:30:55.264Z,10.73
2017-07-05T14:33:22.768Z,9.83
2017-07-05T14:35:50.251Z,10.50
2017-07-05T14:38:17.763Z,10.97
2017-07-05T14:40:45.651Z,10.40
2017-07-05T14:43:13.151Z,9.93
2017-07-05T14:45:40.638Z,11.10
2017-07-05T14:48:08.216Z,10.53
2017-07-05T14:50:35.704Z,10.83
2017-07-05T14:53:03.227Z,9.90
2017-07-05T14:55:31.145Z,9.70
2017-07-05T14:57:58.687Z,10.17
2017-07-05T15:00:26.173Z,9.10
2017-07-05T15:02:55.630Z,9.87
2017-07-05T15:05:23.122Z,9.60
2017-07-05T15:07:50.642Z,10.30
2017-07-05T15:10:18.163Z,9.07
2017-07-05T15:12:45.672Z,10.67
2017-07-05T15:15:13.257Z,9.63
2017-07-05T15:17:40.771Z,9.70
2017-07-05T15:20:08.284Z,10.43
2017-07-05T15:22:35.773Z,9.10
2017-07-05T15:25:03.287Z,9.70
2017-07-05T15:27:30.791Z,9.70
2017-07-05T15:29:59.277Z,10.20
2017-07-05T15:32:26.931Z,9.53
2017-07-05T15:34:54.463Z,8.70
2017-07-05T15:37:21.951Z,9.10
2017-07-05T15:39:50.527Z,9.00
2017-07-05T15:42:19.335Z,8.50
2017-07-05T15:44:46.913Z,9.27
2017-07-05T15:47:14.401Z,9.17
2017-07-05T15:49:42.325Z,9.20
2017-07-05T15:52:09.991Z,8.87
2017-07-05T15:54:37.510Z,8.57
2017-07-05T15:57:05.470Z,9.13
2017-07-05T15:59:33.437Z,9.57
2017-07-05T16:02:00.998Z,7.73
2017-07-05T16:04:30.834Z,8.20
2017-07-05T16:06:58.298Z,8.20
2017-07-05T16:09:25.786Z,8.00
2017-07-05T16:11:53.253Z,8.60
2017-07-05T16:14:20.837Z,7.70
2017-07-05T16:16:48.814Z,7.67
2017-07-05T16:19:16.698Z,8.00
2017-07-05T16:21:44.234Z,7.53
2017-07-05T16:24:12.121Z,7.77
2017-07-05T16:26:39.662Z,7.10
2017-07-05T16:29:07.546Z,8.07
2017-07-05T16:31:35.086Z,7.00
2017-07-05T16:34:03.049Z,6.77
2017-07-05T16:36:31.014Z,6.90
2017-07-05T16:38:58.501Z,6.93
2017-07-05T16:41:25.981Z,7.23
2017-07-05T16:43:53.482Z,6.43
2017-07-05T16:46:20.966Z,7.40
2017-07-05T16:48:48.458Z,6.80
2017-07-05T16:51:15.950Z,6.53
2017-07-05T16:53:43.422Z,7.00
2017-07-05T16:56:11.334Z,6.50
2017-07-05T16:58:38.806Z,6.40
2017-07-05T17:01:07.265Z,7.57
2017-07-05T17:03:34.778Z,7.30
2017-07-05T17:06:02.342Z,10.40
2017-07-05T17:08:30.339Z,20.37
2017-07-05T17:10:57.849Z,30.17
2017-07-05T17:13:25.353Z,30.70
2017-07-05T17:15:52.881Z,30.33
2017-07-05T17:18:21.703Z,33.30
2017-07-05T17:20:49.226Z,33.43
2017-07-05T17:23:17.193Z,35.40
2017-07-05T17:25:45.086Z,30.90
2017-07-05T17:28:12.619Z,30.67
2017-07-05T17:30:40.506Z,31.17
2017-07-05T17:33:07.984Z,30.67
2017-07-05T17:35:35.497Z,32.00
2017-07-05T17:38:03.369Z,31.13
2017-07-05T17:40:31.335Z,30.80
2017-07-05T17:42:59.335Z,30.07
2017-07-05T17:45:26.839Z,29.90
2017-07-05T17:47:54.318Z,29.80
2017-07-05T17:50:22.211Z,27.67
2017-07-05T17:52:50.477Z,31.00
2017-07-05T17:55:18.018Z,29.20
2017-07-05T17:57:46.439Z,30.50
2017-07-05T18:00:14.000Z,28.00
2017-07-05T18:02:41.510Z,27.53
2017-07-05T18:05:09.002Z,29.63
2017-07-05T18:07:36.529Z,29.37
2017-07-05T18:10:04.498Z,27.30
2017-07-05T18:12:32.370Z,28.10
2017-07-05T18:15:00.261Z,28.60
2017-07-05T18:17:29.686Z,27.30
2017-07-05T18:19:57.165Z,27.90
2017-07-05T18:22:24.745Z,29.40
2017-07-05T18:24:52.642Z,26.90
2017-07-05T18:27:20.129Z,26.47
2017-07-05T18:29:47.614Z,27.97
2017-07-05T18:32:15.185Z,26.80
2017-07-05T18:34:43.157Z,25.30
2017-07-05T18:37:11.134Z,24.87
2017-07-05T18:39:39.026Z,26.13
2017-07-05T18:42:06.522Z,24.97
2017-07-05T18:44:34.005Z,24.90
2017-07-05T18:47:01.902Z,23.90
2017-07-05T18:49:29.436Z,24.50
2017-07-05T18:51:57.350Z,24.33
2017-07-05T18:54:24.862Z,23.90
2017-07-05T18:56:52.823Z,22.20
2017-07-05T18:59:22.674Z,22.87
2017-07-05T19:01:51.077Z,23.40
2017-07-05T19:04:18.691Z,24.40
2017-07-05T19:06:46.250Z,26.33
2017-07-05T19:09:16.094Z,28.17
2017-07-05T19:11:43.602Z,28.83
2017-07-05T19:14:11.493Z,30.70
2017-07-05T19:16:38.976Z,32.30
2017-07-05T19:19:08.430Z,32.93
2017-07-05T19:21:36.326Z,35.67
2017-07-05T19:24:03.805Z,37.17
2017-07-05T19:26:32.198Z,38.03
2017-07-05T19:28:59.686Z,35.67
2017-07-05T19:31:27.578Z,37.97
2017-07-05T19:33:55.118Z,41.20
2017-07-05T19:36:23.015Z,44.67
2017-07-05T19:38:50.538Z,49.37
2017-07-05T19:41:18.430Z,49.60
2017-07-05T19:43:45.958Z,58.50
2017-07-05T19:46:13.854Z,54.03
2017-07-05T19:48:41.390Z,52.30
2017-07-05T19:51:09.289Z,57.00
2017-07-05T19:53:36.765Z,55.57
2017-07-05T19:56:06.202Z,55.17
2017-07-05T19:58:33.782Z,58.70
2017-07-05T20:01:01.672Z,56.27
2017-07-05T20:03:29.195Z,57.73
2017-07-05T20:05:58.102Z,56.60
2017-07-05T20:08:25.588Z,55.37
2017-07-05T20:10:53.098Z,49.73
2017-07-05T20:13:21.886Z,48.03
2017-07-05T20:15:51.722Z,42.07
2017-07-05T20:18:21.495Z,39.57
2017-07-05T20:20:49.914Z,39.30
2017-07-05T20:23:17.458Z,33.87
2017-07-05T20:25:45.342Z,32.93
2017-07-05T20:28:12.856Z,32.13
2017-07-05T20:30:42.077Z,31.67
2017-07-05T20:33:09.590Z,29.63
2017-07-05T20:35:38.105Z,29.83
2017-07-05T20:38:06.078Z,25.27
2017-07-05T20:40:34.046Z,25.90
2017-07-05T20:43:02.009Z,24.70
2017-07-05T20:45:30.797Z,21.70
2017-07-05T20:47:58.767Z,22.37
2017-07-05T20:50:26.687Z,21.00
2017-07-05T20:52:54.201Z,21.77
2017-07-05T20:55:22.169Z,19.50
2017-07-05T20:57:50.043Z,20.37
2017-07-05T21:00:17.539Z,18.63
2017-07-05T21:02:45.046Z,18.97
2017-07-05T21:05:13.013Z,17.33
2017-07-05T21:07:41.019Z,18.00
2017-07-05T21:10:08.512Z,19.30
2017-07-05T21:12:36.031Z,17.73
2017-07-05T21:15:03.566Z,18.60
2017-07-05T21:17:31.532Z,17.73
2017-07-05T21:19:59.407Z,15.60
2017-07-05T21:22:26.910Z,15.43
2017-07-05T21:24:54.377Z,16.70
2017-07-05T21:27:21.889Z,15.47
2017-07-05T21:29:49.421Z,15.43
2017-07-05T21:32:17.324Z,14.83
2017-07-05T21:34:44.837Z,10.90
2017-07-05T21:37:12.334Z,12.67
2017-07-05T21:39:40.189Z,11.97
2017-07-05T21:42:07.880Z,11.83
2017-07-05T21:44:35.398Z,12.93
2017-07-05T21:47:02.911Z,13.47
2017-07-05T21:49:33.385Z,13.83
2017-07-05T21:52:01.552Z,13.40
2017-07-05T21:54:30.851Z,12.83
2017-07-05T21:56:58.895Z,13.30
2017-07-05T21:59:27.106Z,12.93
2017-07-05T22:01:56.323Z,12.50
2017-07-05T22:04:24.772Z,12.33
2017-07-05T22:06:53.271Z,11.90
2017-07-05T22:09:21.026Z,12.40
2017-07-05T22:11:50.246Z,11.63
2017-07-05T22:14:19.090Z,11.27
2017-07-05T22:16:48.550Z,11.90
2017-07-05T22:19:16.339Z,9.83
2017-07-05T22:21:46.085Z,10.80
2017-07-05T22:24:14.960Z,10.97
2017-07-05T22:26:44.167Z,10.50
2017-07-05T22:29:12.780Z,10.60
2017-07-05T22:31:42.871Z,10.70
2017-07-05T22:34:11.551Z,11.00
2017-07-05T22:36:40.837Z,10.93
2017-07-05T22:39:09.042Z,11.03
2017-07-05T22:41:38.592Z,10.13
2017-07-05T22:44:06.947Z,10.70
2017-07-05T22:46:34.866Z,10.00
2017-07-05T22:49:02.445Z,9.90
2017-07-05T22:51:31.202Z,10.27
2017-07-05T22:54:00.865Z,10.00
2017-07-05T22:56:32.183Z,9.93
2017-07-05T22:59:00.664Z,9.80
2017-07-05T23:01:29.914Z,10.20
2017-07-05T23:03:57.723Z,10.00
2017-07-05T23:06:25.574Z,9.77
2017-07-05T23:08:54.714Z,11.50
2017-07-05T23:11:25.774Z,10.60
2017-07-05T23:13:55.916Z,9.63
2017-07-05T23:16:26.021Z,9.97
2017-07-05T23:18:55.902Z,9.43
2017-07-05T23:21:25.554Z,10.13
2017-07-05T23:23:54.552Z,10.30
2017-07-05T23:26:24.547Z,9.07
2017-07-05T23:28:52.526Z,9.30
2017-07-05T23:31:23.109Z,9.57
2017-07-05T23:33:52.031Z,9.37
2017-07-05T23:36:21.450Z,9.20
2017-07-05T23:38:50.060Z,9.37
2017-07-05T23:41:18.339Z,8.70
2017-07-05T23:43:46.364Z,9.17
2017-07-05T23:46:17.027Z,9.07
2017-07-05T23:48:45.836Z,9.00
2017-07-05T23:51:14.536Z,9.40
2017-07-05T23:53:42.378Z,9.30
2017-07-05T23:56:11.776Z,9.80
2017-07-05T23:58:39.469Z,10.20
